Time;durP1;ratioP1;P1;durP2;ratioP2;P2;SDS_P1;SDS_P2;PMS_P1;PMS_P2;Temp;Humidity;BMP_temperature;BMP_pressure;BME280_temperature;BME280_humidity;BME280_pressure;Samples;Min_cycle;Max_cycle;Signal;HPM_P1;HPM_P2
2023/06/22 00:00:12;;;;;;;25.00;9.60;;;;;;;15.15;100.00;101091.39;105748;1254;60700;-47
2023/06/22 00:02:40;;;;;;;18.20;9.40;;;;;;;15.17;100.00;101090.31;105760;1255;73867;-47
2023/06/22 00:05:07;;;;;;;28.30;9.90;;;;;;;15.16;100.00;101087.72;105743;1254;65478;-47
2023/06/22 00:07:34;;;;;;;20.20;8.70;;;;;;;15.14;100.00;101086.36;105759;1254;72488;-46
2023/06/22 00:10:01;;;;;;;13.30;9.00;;;;;;;15.11;100.00;101086.29;105737;1258;61816;-46
2023/06/22 00:12:28;;;;;;;17.80;9.50;;;;;;;15.07;100.00;101088.83;105805;1254;60649;-47
2023/06/22 00:14:55;;;;;;;21.10;9.90;;;;;;;15.05;100.00;101085.91;105755;1259;73809;-46
2023/06/22 00:17:22;;;;;;;18.20;9.60;;;;;;;15.05;100.00;101085.23;105777;1253;65377;-45
2023/06/22 00:19:53;;;;;;;13.40;9.30;;;;;;;15.05;100.00;101085.05;105749;1259;72520;-46
2023/06/22 00:22:28;;;;;;;15.40;10.00;;;;;;;15.06;100.00;101083.65;105823;1254;62463;-46
2023/06/22 00:24:56;;;;;;;19.80;9.30;;;;;;;15.07;100.00;101086.92;105420;1259;315523;-44
2023/06/22 00:27:24;;;;;;;22.30;9.40;;;;;;;15.07;100.00;101084.67;105689;1259;73704;-44
2023/06/22 00:30:40;;;;;;;16.40;9.00;;;;;;;15.07;100.00;101082.21;102933;1292;600432;-43
2023/06/22 00:33:08;;;;;;;15.20;9.00;;;;;;;15.05;100.00;101079.34;105070;1270;61597;-45
2023/06/22 00:35:36;;;;;;;15.40;9.10;;;;;;;15.04;100.00;101076.56;104854;1264;60007;-45
2023/06/22 00:38:04;;;;;;;11.70;9.60;;;;;;;15.00;100.00;101077.53;105073;1264;71000;-45
2023/06/22 00:40:32;;;;;;;13.60;8.30;;;;;;;14.95;100.00;101076.98;105275;1275;65113;-46
2023/06/22 00:43:00;;;;;;;18.30;8.70;;;;;;;14.89;100.00;101076.10;105294;1266;71692;-45
2023/06/22 00:45:29;;;;;;;10.90;9.10;;;;;;;14.82;100.00;101080.97;105396;1258;222815;-46
2023/06/22 01:15:25;;;;;;;23.30;8.50;;;;;;;14.56;100.00;101088.20;102684;1292;600413;-44
2023/06/22 01:17:53;;;;;;;10.00;7.90;;;;;;;14.51;100.00;101090.91;105023;1269;60733;-45
2023/06/22 01:20:21;;;;;;;10.40;7.50;;;;;;;14.49;100.00;101090.96;104832;1270;59765;-45
2023/06/22 01:23:10;;;;;;;17.20;7.80;;;;;;;14.44;100.00;101087.27;104843;1264;72031;-44
2023/06/22 01:25:48;;;;;;;9.80;7.30;;;;;;;14.40;100.00;101091.02;104813;1270;64016;-45
2023/06/22 01:28:41;;;;;;;13.60;6.70;;;;;;;14.37;100.00;101095.77;104887;1267;231336;-46
2023/06/22 01:31:15;;;;;;;11.80;7.20;;;;;;;14.34;100.00;101101.57;105193;1266;60391;-45
2023/06/22 01:33:45;;;;;;;9.80;6.30;;;;;;;14.31;100.00;101100.42;105158;1262;59320;-45
2023/06/22 01:36:13;;;;;;;11.80;6.70;;;;;;;14.26;100.00;101096.20;105226;1266;71708;-45
2023/06/22 01:38:41;;;;;;;11.90;6.90;;;;;;;14.23;100.00;101096.43;105252;1266;65123;-45
2023/06/22 01:41:10;;;;;;;11.00;6.90;;;;;;;14.19;100.00;101097.91;105104;1264;71373;-45
2023/06/22 01:43:38;;;;;;;11.30;6.30;;;;;;;14.17;100.00;101100.23;105181;1266;61685;-45
2023/06/22 01:46:06;;;;;;;7.70;6.90;;;;;;;14.16;100.00;101101.65;105133;1269;59679;-44
2023/06/22 01:48:34;;;;;;;14.10;6.70;;;;;;;14.15;100.00;101105.15;105185;1262;71775;-45
2023/06/22 01:51:03;;;;;;;12.70;6.50;;;;;;;14.12;100.00;101111.45;105171;1266;65308;-45
2023/06/22 01:53:31;;;;;;;9.00;7.10;;;;;;;14.13;100.00;101115.42;105190;1264;72691;-45
2023/06/22 01:55:59;;;;;;;9.90;7.70;;;;;;;14.13;100.00;101112.13;105195;1266;61656;-44
2023/06/22 01:58:29;;;;;;;18.10;6.90;;;;;;;14.14;100.00;101114.89;105221;1269;59560;-45
2023/06/22 02:01:10;;;;;;;16.20;7.20;;;;;;;14.14;100.00;101119.90;105242;1264;73066;-44
2023/06/22 02:03:44;;;;;;;18.50;7.70;;;;;;;14.14;100.00;101123.05;104921;1269;64170;-44
2023/06/22 02:06:25;;;;;;;14.30;7.20;;;;;;;14.14;100.00;101123.39;105239;1264;71337;-45
2023/06/22 02:08:58;;;;;;;15.50;7.30;;;;;;;14.14;100.00;101129.27;105225;1263;61594;-44
2023/06/22 02:11:27;;;;;;;19.70;7.30;;;;;;;14.15;100.00;101131.69;105186;1263;59778;-45
2023/06/22 02:13:55;;;;;;;9.40;6.80;;;;;;;14.16;100.00;101130.45;105042;1263;72811;-46
2023/06/22 02:16:24;;;;;;;14.00;6.70;;;;;;;14.18;100.00;101131.98;104772;1264;65242;-45
2023/06/22 02:18:52;;;;;;;20.90;6.80;;;;;;;14.19;100.00;101127.25;105427;1256;72643;-45
2023/06/22 02:21:20;;;;;;;18.10;7.20;;;;;;;14.22;100.00;101131.52;105585;1261;60371;-45
2023/06/22 02:23:47;;;;;;;13.50;6.80;;;;;;;14.25;100.00;101131.29;105613;1261;60085;-44
2023/06/22 02:26:17;;;;;;;18.00;8.40;;;;;;;14.28;100.00;101130.70;105577;1256;71809;-44
2023/06/22 02:28:45;;;;;;;12.00;7.20;;;;;;;14.31;100.00;101130.64;105618;1257;65206;-44
2023/06/22 02:31:17;;;;;;;10.20;6.40;;;;;;;14.35;100.00;101133.84;105606;1257;71424;-44
2023/06/22 02:33:46;;;;;;;11.60;6.70;;;;;;;14.40;100.00;101133.05;105608;1257;59796;-45
2023/06/22 02:36:13;;;;;;;16.00;6.50;;;;;;;14.44;100.00;101136.77;105506;1257;59973;-45
2023/06/22 02:38:45;;;;;;;8.50;6.80;;;;;;;14.48;100.00;101140.65;105563;1257;73086;-45
2023/06/22 02:41:20;;;;;;;7.40;6.50;;;;;;;14.53;100.00;101146.29;105606;1260;63893;-45
2023/06/22 02:43:48;;;;;;;12.90;6.80;;;;;;;14.58;100.00;101148.41;105560;1257;71717;-45
2023/06/22 02:46:20;;;;;;;11.50;7.70;;;;;;;14.61;100.00;101141.55;105604;1257;60840;-45
2023/06/22 02:48:48;;;;;;;8.10;7.00;;;;;;;14.64;100.00;101143.74;105630;1256;59644;-45
2023/06/22 02:51:16;;;;;;;12.80;7.60;;;;;;;14.66;100.00;101147.33;105549;1257;72141;-45
2023/06/22 02:53:45;;;;;;;14.90;7.50;;;;;;;14.72;100.00;101151.02;105505;1263;65239;-46
2023/06/22 02:56:14;;;;;;;15.70;7.60;;;;;;;14.81;100.00;101148.76;105624;1258;71417;-45
2023/06/22 02:58:42;;;;;;;16.50;6.70;;;;;;;14.89;100.00;101152.52;105645;1260;60432;-45
2023/06/22 03:01:13;;;;;;;12.60;7.60;;;;;;;15.00;100.00;101159.23;105618;1258;59557;-45
2023/06/22 03:03:44;;;;;;;12.30;7.50;;;;;;;15.10;100.00;101155.83;105592;1260;71338;-45
2023/06/22 03:06:13;;;;;;;20.50;7.30;;;;;;;15.21;100.00;101156.58;105558;1256;64034;-46
2023/06/22 03:08:41;;;;;;;11.00;7.10;;;;;;;15.33;100.00;101160.29;105627;1257;72626;-46
2023/06/22 03:11:10;;;;;;;14.40;7.20;;;;;;;15.44;100.00;101156.50;105599;1256;60824;-44
2023/06/22 03:13:38;;;;;;;12.50;7.40;;;;;;;15.54;100.00;101160.57;105612;1260;60008;-45
2023/06/22 03:16:07;;;;;;;9.50;7.00;;;;;;;15.64;100.00;101164.98;105580;1257;71610;-46
2023/06/22 03:18:34;;;;;;;11.80;6.60;;;;;;;15.73;100.00;101167.50;105577;1257;65172;-46
2023/06/22 03:21:02;;;;;;;14.70;7.40;;;;;;;15.83;100.00;101168.80;105609;1257;71419;-46
2023/06/22 03:23:31;;;;;;;10.30;6.80;;;;;;;15.90;100.00;101172.95;105554;1263;59749;-45
2023/06/22 03:25:59;;;;;;;21.20;7.50;;;;;;;16.01;100.00;101177.16;105493;1263;59650;-44
2023/06/22 03:28:27;;;;;;;14.80;7.20;;;;;;;16.16;100.00;101174.13;105573;1257;71811;-45
2023/06/22 03:30:57;;;;;;;9.70;7.40;;;;;;;16.30;100.00;101173.00;105619;1257;65482;-45
2023/06/22 03:33:25;;;;;;;11.80;6.90;;;;;;;16.41;100.00;101170.05;105533;1257;72626;-45
2023/06/22 03:35:53;;;;;;;11.00;7.50;;;;;;;16.51;100.00;101168.86;105545;1257;60444;-45
2023/06/22 03:38:21;;;;;;;8.50;7.40;;;;;;;16.60;100.00;101170.14;105573;1259;60020;-45
2023/06/22 03:40:52;;;;;;;13.00;6.70;;;;;;;16.78;100.00;101172.87;105579;1260;71297;-45
2023/06/22 03:43:21;;;;;;;18.70;6.90;;;;;;;17.05;100.00;101170.44;105585;1257;64375;-45
2023/06/22 03:45:48;;;;;;;28.20;8.00;;;;;;;17.27;100.00;101174.21;105584;1260;70919;-45
2023/06/22 03:48:16;;;;;;;17.00;7.30;;;;;;;17.51;100.00;101171.64;105603;1257;59848;-44
2023/06/22 03:50:45;;;;;;;20.70;7.40;;;;;;;17.72;100.00;101176.11;105605;1257;59557;-44
2023/06/22 03:53:13;;;;;;;24.40;7.50;;;;;;;18.01;100.00;101177.84;105575;1260;73034;-45
2023/06/22 03:55:49;;;;;;;16.40;7.70;;;;;;;18.29;100.00;101182.23;105549;1256;63930;-44
2023/06/22 03:58:18;;;;;;;19.30;7.90;;;;;;;18.57;100.00;101177.09;105591;1260;71395;-45
2023/06/22 04:00:51;;;;;;;18.60;7.50;;;;;;;18.81;100.00;101178.05;105566;1257;59701;-45
2023/06/22 04:03:20;;;;;;;21.80;7.90;;;;;;;18.92;100.00;101182.98;105626;1256;60163;-45
2023/06/22 04:05:49;;;;;;;20.40;7.90;;;;;;;19.06;100.00;101186.64;105579;1257;71840;-46
2023/06/22 04:08:17;;;;;;;26.00;8.50;;;;;;;19.23;100.00;101192.23;105583;1257;64863;-45
2023/06/22 04:10:45;;;;;;;24.40;8.80;;;;;;;19.41;100.00;101194.39;105579;1257;72627;-45
2023/06/22 04:13:13;;;;;;;18.80;8.20;;;;;;;19.57;100.00;101201.79;105552;1257;60299;-45
2023/06/22 04:15:40;;;;;;;22.60;8.40;;;;;;;19.70;100.00;101205.56;105637;1260;59640;-46
2023/06/22 04:18:08;;;;;;;15.80;7.80;;;;;;;19.81;100.00;101216.27;105555;1260;73048;-46
2023/06/22 04:20:36;;;;;;;16.80;8.00;;;;;;;19.85;100.00;101219.27;105612;1260;64023;-45
2023/06/22 04:23:04;;;;;;;31.40;9.00;;;;;;;19.86;100.00;101231.31;105560;1258;72628;-46
2023/06/22 04:25:32;;;;;;;23.20;7.90;;;;;;;19.99;100.00;101237.58;105566;1260;59753;-46
2023/06/22 04:28:03;;;;;;;20.50;8.90;;;;;;;20.15;100.00;101245.27;105565;1258;60051;-45
2023/06/22 04:30:32;;;;;;;26.80;7.90;;;;;;;20.28;100.00;101249.23;105621;1260;70975;-46
2023/06/22 04:33:00;;;;;;;23.50;7.80;;;;;;;20.45;100.00;101262.96;105593;1260;65168;-45
2023/06/22 04:35:28;;;;;;;34.60;10.00;;;;;;;20.59;100.00;101270.91;105581;1257;71430;-45
2023/06/22 04:37:57;;;;;;;36.40;9.00;;;;;;;20.74;100.00;101282.13;105641;1260;62133;-45
2023/06/22 04:40:25;;;;;;;37.20;9.60;;;;;;;20.89;100.00;101297.40;105573;1256;59654;-45
2023/06/22 04:42:53;;;;;;;36.10;9.20;;;;;;;21.01;100.00;101314.20;105604;1257;71899;-45
2023/06/22 04:45:21;;;;;;;32.40;9.80;;;;;;;21.16;100.00;101341.15;105612;1257;64107;-46
2023/06/22 04:47:49;;;;;;;39.30;9.30;;;;;;;21.37;100.00;101364.20;105549;1260;72636;-45
2023/06/22 04:50:17;;;;;;;45.10;9.90;;;;;;;21.53;100.00;101392.56;105586;1260;59858;-45
2023/06/22 04:52:45;;;;;;;32.00;8.90;;;;;;;21.62;100.00;101434.25;105602;1260;59683;-46
2023/06/22 04:55:18;;;;;;;23.70;7.40;;;;;;;21.70;100.00;101473.92;105535;1257;71713;-46
2023/06/22 04:57:49;;;;;;;25.90;7.60;;;;;;;21.88;100.00;101512.55;105425;1257;64329;-45
2023/06/22 05:00:19;;;;;;;21.80;8.20;;;;;;;22.13;100.00;101554.41;105586;1257;72715;-46
2023/06/22 05:02:47;;;;;;;23.10;6.60;;;;;;;22.43;100.00;101585.21;105592;1260;60851;-45
2023/06/22 05:05:15;;;;;;;14.60;6.00;;;;;;;22.67;100.00;101624.16;105573;1257;59965;-45
2023/06/22 05:07:44;;;;;;;14.80;5.60;;;;;;;22.91;100.00;101656.89;105605;1256;73031;-45
2023/06/22 05:10:12;;;;;;;12.40;5.90;;;;;;;23.01;100.00;101717.83;105647;1257;65151;-46
2023/06/22 05:12:41;;;;;;;10.60;5.40;;;;;;;23.09;100.00;101760.50;105584;1257;72726;-45
2023/06/22 05:15:09;;;;;;;13.40;5.80;;;;;;;23.22;100.00;101781.52;105619;1260;59717;-46
2023/06/22 05:17:36;;;;;;;11.00;4.80;;;;;;;23.32;100.00;101797.41;105646;1257;59554;-47
2023/06/22 05:20:06;;;;;;;8.90;5.40;;;;;;;23.39;100.00;101804.63;105573;1257;71826;-46
2023/06/22 05:22:33;;;;;;;13.20;5.70;;;;;;;23.48;100.00;101808.91;105628;1257;65355;-45
2023/06/22 05:25:01;;;;;;;13.50;5.20;;;;;;;23.61;100.00;101801.06;105546;1257;71409;-47
2023/06/22 05:27:29;;;;;;;7.40;4.90;;;;;;;23.64;100.00;101724.43;105552;1260;60555;-46
2023/06/22 05:29:56;;;;;;;5.70;4.60;;;;;;;23.61;100.00;101507.20;105565;1260;60435;-44
2023/06/22 05:32:24;;;;;;;13.10;4.90;;;;;;;23.65;100.00;101334.70;105564;1258;73833;-44
2023/06/22 05:34:51;;;;;;;8.20;4.40;;;;;;;23.84;100.00;101237.35;105584;1260;65749;-44
2023/06/22 05:37:19;;;;;;;13.60;5.30;;;;;;;23.95;100.00;100997.89;105555;1260;72690;-47
2023/06/22 05:39:47;;;;;;;10.70;5.50;;;;;;;23.97;100.00;100816.78;105581;1257;60524;-44
2023/06/22 05:42:14;;;;;;;10.00;5.10;;;;;;;23.91;100.00;100761.30;105593;1261;60444;-45
2023/06/22 05:44:42;;;;;;;8.30;5.30;;;;;;;23.82;100.00;100769.70;105604;1258;73836;-45
2023/06/22 05:47:10;;;;;;;14.40;4.90;;;;;;;23.86;100.00;100774.54;105572;1260;64027;-45
2023/06/22 05:49:37;;;;;;;6.40;4.80;;;;;;;23.83;100.00;100808.91;105562;1257;71529;-44
2023/06/22 05:52:06;;;;;;;6.10;4.80;;;;;;;23.78;100.00;100817.86;105565;1256;60450;-45
2023/06/22 05:54:34;;;;;;;9.90;4.90;;;;;;;23.83;100.00;100841.30;105612;1257;60367;-45
2023/06/22 05:57:02;;;;;;;10.10;4.70;;;;;;;23.92;100.00;100840.19;105669;1256;72666;-45
2023/06/22 05:59:29;;;;;;;10.70;5.20;;;;;;;24.10;100.00;100828.95;105566;1256;65179;-45
2023/06/22 06:01:57;;;;;;;7.30;4.90;;;;;;;24.25;100.00;100839.05;105528;1257;71816;-44
2023/06/22 06:04:25;;;;;;;7.10;4.70;;;;;;;24.29;100.00;100889.34;105534;1261;60524;-45
2023/06/22 06:06:54;;;;;;;6.60;5.10;;;;;;;24.28;100.00;100918.37;105619;1257;60457;-46
2023/06/22 06:09:22;;;;;;;13.50;5.80;;;;;;;24.36;100.00;100905.96;105589;1261;73824;-45
2023/06/22 06:11:50;;;;;;;11.40;5.20;;;;;;;24.50;100.00;100898.14;105597;1257;64033;-44
2023/06/22 06:14:17;;;;;;;11.30;5.50;;;;;;;24.70;100.00;100904.84;105606;1257;72694;-45
2023/06/22 06:16:46;;;;;;;11.30;5.30;;;;;;;24.90;100.00;100912.65;105592;1257;60520;-44
2023/06/22 06:19:13;;;;;;;14.30;5.40;;;;;;;25.05;100.00;100932.02;105657;1257;60374;-45
2023/06/22 06:21:41;;;;;;;17.90;5.00;;;;;;;25.13;100.00;100989.16;105609;1257;72695;-43
2023/06/22 06:24:09;;;;;;;14.00;5.10;;;;;;;25.15;100.00;101035.67;105586;1257;63951;-44
2023/06/22 06:26:37;;;;;;;13.90;5.00;;;;;;;25.28;100.00;101021.14;105564;1257;72645;-44
2023/06/22 06:29:06;;;;;;;15.10;5.10;;;;;;;25.43;100.00;101025.39;105636;1262;60575;-44
2023/06/22 06:31:34;;;;;;;14.90;5.10;;;;;;;25.51;100.00;101047.92;105600;1257;60917;-43
2023/06/22 06:34:02;;;;;;;10.40;4.30;;;;;;;25.66;100.00;101062.58;105628;1256;73862;-44
2023/06/22 06:36:30;;;;;;;8.80;4.40;;;;;;;25.83;100.00;101079.02;105633;1256;64050;-44
2023/06/22 06:38:58;;;;;;;25.80;4.60;;;;;;;25.87;100.00;101077.70;105552;1261;72643;-44
2023/06/22 06:41:26;;;;;;;7.50;4.60;;;;;;;25.78;100.00;101100.06;105586;1257;60447;-45
2023/06/22 06:43:54;;;;;;;9.80;4.50;;;;;;;25.78;100.00;101109.09;105792;1257;60454;-46
2023/06/22 06:46:22;;;;;;;7.80;4.20;;;;;;;25.81;100.00;101125.28;105470;1257;72635;-45
2023/06/22 06:48:50;;;;;;;13.50;4.40;;;;;;;25.87;100.00;101116.03;105547;1258;64000;-44
2023/06/22 06:51:18;;;;;;;12.10;4.70;;;;;;;25.86;100.00;101152.92;105490;1257;72645;-43
2023/06/22 06:53:45;;;;;;;6.30;4.30;;;;;;;25.88;100.00;101162.81;105507;1262;61516;-45
2023/06/22 06:56:13;;;;;;;4.70;4.30;;;;;;;25.95;100.00;101169.56;105503;1263;60364;-45
2023/06/22 06:58:45;;;;;;;12.00;4.80;;;;;;;26.04;100.00;101167.98;105521;1262;73848;-44
2023/06/22 07:01:13;;;;;;;9.90;4.60;;;;;;;26.16;100.00;101165.41;105570;1256;64014;-45
2023/06/22 07:03:41;;;;;;;4.70;4.20;;;;;;;26.25;100.00;101174.32;105490;1262;71564;-44
2023/06/22 07:06:09;;;;;;;12.60;4.20;;;;;;;26.27;99.08;101164.29;105539;1258;60552;-44
2023/06/22 07:08:39;;;;;;;14.10;4.60;;;;;;;26.10;96.81;101177.14;105518;1262;60454;-44
2023/06/22 07:11:07;;;;;;;9.80;4.40;;;;;;;25.80;99.89;101199.23;105530;1260;73813;-45
2023/06/22 07:13:35;;;;;;;12.90;4.60;;;;;;;25.52;100.00;101210.72;105529;1257;66389;-44
2023/06/22 07:16:04;;;;;;;11.50;4.60;;;;;;;25.34;100.00;101210.77;105529;1261;71627;-45
2023/06/22 07:18:32;;;;;;;6.70;4.50;;;;;;;25.34;100.00;101217.13;105593;1262;60549;-44
2023/06/22 07:21:00;;;;;;;5.40;4.10;;;;;;;25.53;100.00;101203.08;105494;1263;60793;-45
2023/06/22 07:23:28;;;;;;;9.10;4.10;;;;;;;25.80;100.00;101214.98;105483;1257;72609;-45
2023/06/22 07:25:55;;;;;;;11.90;4.60;;;;;;;26.14;93.77;101178.64;105511;1257;63528;-44
2023/06/22 07:28:23;;;;;;;4.60;4.10;;;;;;;26.39;93.93;101194.34;105485;1257;71927;-44
2023/06/22 07:30:51;;;;;;;4.70;3.80;;;;;;;26.43;83.66;101177.42;105575;1257;60494;-45
2023/06/22 07:33:19;;;;;;;14.40;3.90;;;;;;;26.32;84.19;101204.25;105545;1261;60523;-43
2023/06/22 07:35:48;;;;;;;4.60;3.90;;;;;;;26.08;78.88;101177.47;105437;1257;72683;-45
2023/06/22 07:38:16;;;;;;;6.40;4.00;;;;;;;25.73;81.15;101227.30;105268;1258;64021;-45
2023/06/22 07:40:44;;;;;;;4.30;3.90;;;;;;;25.62;91.78;101255.27;105522;1257;71940;-45
2023/06/22 07:43:11;;;;;;;9.50;3.80;;;;;;;25.74;90.30;101229.02;105633;1257;60446;-44
2023/06/22 07:45:40;;;;;;;6.30;3.60;;;;;;;25.86;90.85;101235.06;105425;1257;60390;-44
2023/06/22 07:48:08;;;;;;;5.30;4.20;;;;;;;26.01;84.76;101205.34;105476;1257;73766;-45
2023/06/22 07:50:35;;;;;;;6.80;3.90;;;;;;;26.22;79.46;101181.95;105498;1257;64067;-45
2023/06/22 07:53:03;;;;;;;13.50;4.10;;;;;;;26.39;79.88;101196.10;105631;1259;73090;-45
2023/06/22 07:55:31;;;;;;;7.40;3.70;;;;;;;26.62;75.05;101157.95;105634;1254;60485;-45
2023/06/22 07:57:59;;;;;;;4.30;3.90;;;;;;;26.80;77.09;101193.76;105712;1259;60511;-44
2023/06/22 08:00:27;;;;;;;8.80;3.70;;;;;;;26.98;71.12;101114.73;105658;1258;73960;-44
2023/06/22 08:02:56;;;;;;;10.50;3.70;;;;;;;27.09;67.90;101095.63;105618;1254;63951;-43
2023/06/22 08:05:24;;;;;;;4.50;3.50;;;;;;;27.20;68.71;101134.66;105632;1256;71417;-44
2023/06/22 08:07:53;;;;;;;11.50;3.50;;;;;;;27.31;67.27;101114.68;105625;1254;60440;-43
2023/06/22 08:10:20;;;;;;;8.90;3.90;;;;;;;27.42;64.96;101075.30;105662;1254;60497;-45
2023/06/22 08:12:48;;;;;;;5.30;3.90;;;;;;;27.52;64.34;101086.95;105724;1254;72561;-44
2023/06/22 08:15:16;;;;;;;5.60;3.20;;;;;;;27.59;62.28;101047.98;105647;1258;63895;-44
2023/06/22 08:17:45;;;;;;;11.90;4.10;;;;;;;27.64;60.22;101000.41;105600;1258;72490;-43
2023/06/22 08:20:13;;;;;;;6.00;3.40;;;;;;;27.67;60.50;101029.70;105725;1257;60510;-44
2023/06/22 08:22:41;;;;;;;3.70;3.30;;;;;;;27.78;59.38;101011.69;105660;1259;60466;-44
2023/06/22 08:25:09;;;;;;;4.80;3.30;;;;;;;27.92;57.97;100971.48;105716;1254;72545;-43
2023/06/22 08:27:37;;;;;;;11.00;3.80;;;;;;;28.05;57.06;100947.34;105713;1254;66072;-45
2023/06/22 08:30:06;;;;;;;10.10;3.70;;;;;;;28.11;57.06;100968.99;105609;1259;71714;-43
2023/06/22 08:32:33;;;;;;;6.00;3.20;;;;;;;28.15;55.46;100921.19;105650;1254;60466;-45
2023/06/22 08:35:01;;;;;;;6.40;3.50;;;;;;;28.21;55.24;100914.11;105650;1257;60445;-45
2023/06/22 08:37:35;;;;;;;4.30;3.20;;;;;;;28.26;53.66;100852.82;105619;1259;72415;-44
2023/06/22 08:40:05;;;;;;;3.90;3.40;;;;;;;28.31;52.82;100822.27;105718;1254;63944;-44
2023/06/22 08:42:33;;;;;;;3.90;3.40;;;;;;;28.32;53.15;100872.20;105666;1257;71411;-44
2023/06/22 08:45:01;;;;;;;11.30;3.70;;;;;;;28.40;52.34;100821.14;105591;1254;60460;-44
2023/06/22 08:47:28;;;;;;;4.40;3.20;;;;;;;28.48;54.39;100961.98;105692;1256;61260;-43
2023/06/22 08:49:56;;;;;;;9.90;3.50;;;;;;;28.62;53.30;100910.52;105744;1254;72575;-43
2023/06/22 08:52:24;;;;;;;4.00;3.20;;;;;;;28.78;52.34;100845.30;105743;1254;65592;-44
2023/06/22 08:54:52;;;;;;;3.30;3.10;;;;;;;28.87;52.68;100879.45;105598;1255;71487;-44
2023/06/22 08:57:21;;;;;;;3.80;3.10;;;;;;;29.02;52.37;100880.84;105964;1260;60464;-43
2023/06/22 08:59:48;;;;;;;7.10;3.20;;;;;;;29.19;53.11;100935.17;105659;1260;60444;-44
2023/06/22 09:02:16;;;;;;;5.00;3.20;;;;;;;29.35;50.91;100792.15;105606;1258;73769;-44
2023/06/22 09:04:45;;;;;;;8.00;2.90;;;;;;;29.47;49.43;100677.53;105696;1260;64034;-45
2023/06/22 09:07:13;;;;;;;8.50;4.10;;;;;;;29.60;50.30;100757.91;105771;1253;72672;-45
2023/06/22 09:09:41;;;;;;;3.80;3.40;;;;;;;29.72;47.47;100529.73;105706;1254;60453;-44
2023/06/22 09:12:09;;;;;;;10.20;3.10;;;;;;;29.74;47.20;100528.52;105647;1254;60460;-45
2023/06/22 09:14:37;;;;;;;9.20;3.20;;;;;;;29.70;45.91;100421.80;105694;1258;76278;-45
2023/06/22 09:17:05;;;;;;;4.40;3.50;;;;;;;29.70;46.66;100518.38;105697;1258;64020;-44
2023/06/22 09:19:32;;;;;;;3.60;2.90;;;;;;;29.72;44.77;100357.11;105938;1254;74474;-44
2023/06/22 09:22:00;;;;;;;10.70;3.30;;;;;;;29.68;43.94;100255.80;105591;1260;60484;-45
2023/06/22 09:24:28;;;;;;;5.70;3.00;;;;;;;29.68;44.42;100309.52;105649;1254;60652;-44
2023/06/22 09:26:56;;;;;;;12.80;3.40;;;;;;;29.72;45.22;100425.94;105927;1259;74588;-44
2023/06/22 09:29:23;;;;;;;3.20;2.90;;;;;;;29.89;44.89;100433.05;105720;1258;63898;-44
2023/06/22 09:31:53;;;;;;;3.80;3.30;;;;;;;30.08;42.21;100118.73;105649;1254;71767;-45
2023/06/22 09:34:21;;;;;;;3.70;3.20;;;;;;;30.21;41.59;100048.17;105681;1257;60514;-45
2023/06/22 09:36:49;;;;;;;3.60;3.30;;;;;;;30.31;40.72;99945.53;105659;1255;60364;-45
2023/06/22 09:39:18;;;;;;;3.60;3.20;;;;;;;30.48;39.60;99846.85;105797;1254;73903;-44
2023/06/22 09:41:46;;;;;;;8.70;2.90;;;;;;;30.67;38.52;99684.11;105738;1260;63874;-45
2023/06/22 09:44:14;;;;;;;8.90;3.50;;;;;;;30.80;39.04;99765.80;105761;1254;72151;-44
2023/06/22 09:46:42;;;;;;;4.90;3.40;;;;;;;30.79;39.58;99813.64;105610;1254;60453;-46
2023/06/22 09:49:10;;;;;;;5.60;3.30;;;;;;;30.80;40.67;99998.82;105610;1256;60361;-45
2023/06/22 09:51:37;;;;;;;4.20;3.50;;;;;;;30.95;38.61;99762.63;105694;1254;73780;-45
2023/06/22 09:54:05;;;;;;;3.50;3.20;;;;;;;30.97;36.72;99519.17;105673;1254;65163;-45
2023/06/22 09:56:33;;;;;;;4.10;3.40;;;;;;;30.94;37.38;99585.95;105669;1254;71644;-45
2023/06/22 09:59:01;;;;;;;3.60;3.30;;;;;;;31.00;36.78;99501.25;105635;1255;60443;-46
2023/06/22 10:01:45;;;;;;;10.90;3.40;;;;;;;31.14;37.16;99557.05;105779;1257;60447;-45
2023/06/22 10:04:13;;;;;;;5.10;3.70;;;;;;;31.27;37.47;99599.19;105649;1255;73867;-44
2023/06/22 10:06:41;;;;;;;3.50;3.30;;;;;;;31.31;36.32;99485.17;105565;1260;63979;-45
2023/06/22 10:09:09;;;;;;;4.20;3.50;;;;;;;31.41;36.80;99531.76;105661;1257;71464;-43
2023/06/22 10:11:37;;;;;;;4.70;3.70;;;;;;;31.52;35.40;99405.42;105769;1259;60475;-44
2023/06/22 10:14:05;;;;;;;3.80;3.50;;;;;;;31.45;34.88;99290.54;105773;1258;60773;-43
2023/06/22 10:16:35;;;;;;;3.60;3.40;;;;;;;31.42;36.16;99449.98;105731;1253;72640;-45
2023/06/22 10:19:03;;;;;;;5.90;3.50;;;;;;;31.60;35.87;99447.64;105766;1254;64128;-45
2023/06/22 10:21:31;;;;;;;3.70;3.30;;;;;;;31.81;36.15;99477.36;105685;1255;71407;-45
2023/06/22 10:24:01;;;;;;;8.90;3.90;;;;;;;32.01;35.71;99436.16;105688;1254;60444;-45
2023/06/22 10:26:29;;;;;;;4.70;3.10;;;;;;;32.04;35.62;99402.83;105681;1259;60360;-46
2023/06/22 10:28:57;;;;;;;7.60;3.50;;;;;;;32.05;35.19;99382.48;105720;1254;74771;-45
2023/06/22 10:31:43;;;;;;;3.20;3.00;;;;;;;32.14;36.71;99521.05;105653;1254;64191;-45
2023/06/22 10:34:11;;;;;;;2.90;2.70;;;;;;;32.17;35.35;99431.85;105634;1257;71425;-46
2023/06/22 10:36:39;;;;;;;4.70;3.20;;;;;;;32.15;35.46;99380.27;105649;1257;60556;-44
2023/06/22 10:39:07;;;;;;;6.80;3.20;;;;;;;32.14;35.25;99406.40;105704;1255;60418;-45
2023/06/22 10:41:35;;;;;;;3.70;3.30;;;;;;;32.18;36.43;99494.03;105638;1254;73637;-45
2023/06/22 10:44:03;;;;;;;19.00;4.10;;;;;;;32.28;36.46;99538.63;105676;1255;66559;-45
2023/06/22 10:46:31;;;;;;;20.00;4.40;;;;;;;32.37;33.60;99278.59;105707;1260;73080;-44
2023/06/22 10:48:59;;;;;;;7.90;3.40;;;;;;;32.25;33.94;99214.98;105606;1255;60601;-45
2023/06/22 10:51:28;;;;;;;14.20;4.20;;;;;;;31.94;33.42;99188.33;105698;1255;60442;-44
2023/06/22 10:53:56;;;;;;;26.10;5.20;;;;;;;31.69;36.26;99448.27;105689;1254;72615;-43
2023/06/22 10:56:23;;;;;;;12.60;3.80;;;;;;;31.78;36.61;99574.86;105666;1260;63922;-45
2023/06/22 10:58:51;;;;;;;5.70;3.70;;;;;;;31.90;35.36;99462.76;105656;1257;72651;-45
2023/06/22 11:01:20;;;;;;;9.20;3.60;;;;;;;32.00;35.95;99530.80;105668;1259;60612;-43
2023/06/22 11:04:03;;;;;;;8.80;3.50;;;;;;;32.14;36.07;99494.67;105808;1254;60453;-44
2023/06/22 11:06:31;;;;;;;3.20;3.00;;;;;;;32.15;33.75;99245.56;105811;1256;73832;-45
2023/06/22 11:08:59;;;;;;;4.00;3.60;;;;;;;32.11;35.85;99469.57;105657;1260;67182;-45
2023/06/22 11:11:29;;;;;;;8.50;3.80;;;;;;;32.23;35.10;99447.23;105680;1260;74489;-45
2023/06/22 11:13:57;;;;;;;3.60;3.30;;;;;;;32.29;35.24;99420.34;105670;1259;60547;-45
2023/06/22 11:16:25;;;;;;;9.70;3.90;;;;;;;32.37;34.74;99396.11;105593;1254;60475;-45
2023/06/22 11:18:53;;;;;;;27.00;4.50;;;;;;;32.42;35.04;99403.39;105638;1259;72154;-45
2023/06/22 11:21:21;;;;;;;13.10;3.90;;;;;;;32.34;34.63;99368.51;105698;1260;64014;-44
2023/06/22 11:23:50;;;;;;;5.30;3.60;;;;;;;32.28;36.02;99541.42;105656;1255;72692;-45
2023/06/22 11:26:18;;;;;;;5.60;3.90;;;;;;;32.39;35.12;99474.63;105716;1260;62004;-45
2023/06/22 11:28:46;;;;;;;26.00;5.50;;;;;;;32.54;33.75;99315.27;105666;1254;60599;-45
2023/06/22 11:31:14;;;;;;;5.20;4.00;;;;;;;32.45;33.70;99266.02;105737;1260;72454;-45
2023/06/22 11:33:52;;;;;;;16.60;5.00;;;;;;;32.56;35.12;99402.95;105729;1259;66444;-45
2023/06/22 11:36:20;;;;;;;4.40;4.00;;;;;;;32.72;34.91;99438.02;105701;1254;71742;-44
2023/06/22 11:38:48;;;;;;;5.30;3.70;;;;;;;32.81;35.37;99457.40;105638;1254;60549;-44
2023/06/22 11:41:16;;;;;;;4.40;4.00;;;;;;;32.93;35.46;99499.98;105671;1258;60767;-45
2023/06/22 11:43:44;;;;;;;5.30;4.00;;;;;;;33.03;35.43;99475.27;105751;1255;76019;-45